Terminal Aerodrome Forecast
Issued by NWS

Home | Current Version | Previous Version | Text Only | Print | Product List | Glossary On
Versions: 1 2 3 4 5 6 7 8 9 10 11 12 13 14 15 16 17
000
FTUS43 KPAH 291100
TAFCGI
TAF
KCGI 291131Z 2912/3012 00000KT 1/4SM FG VV001
      TEMPO 2913/2915 3SM BR SCT001
     FM291500 33003KT 6SM HZ SKC
     FM291700 32009KT P6SM SKC
     FM300000 35003KT P6SM SKC
     FM300800 00000KT 3SM BR BCFG SKC=

USA.gov is the U.S. government's official web portal to all federal, state and local government web resources and services.